createdAt,value
2022-12-08T00:01:05.142Z,88.88
2022-12-08T00:03:32.067Z,89.15
2022-12-08T00:06:17.527Z,89.26
2022-12-08T00:09:02.904Z,89.48
2022-12-08T00:11:29.747Z,89.55
2022-12-08T00:13:56.449Z,89.40
2022-12-08T00:16:23.346Z,89.56
2022-12-08T00:18:50.425Z,89.64
2022-12-08T00:21:17.224Z,90.10
2022-12-08T00:23:44.098Z,90.56
2022-12-08T00:26:10.803Z,91.30
2022-12-08T00:28:37.729Z,91.69
2022-12-08T00:31:09.272Z,91.71
2022-12-08T00:33:36.380Z,91.74
2022-12-08T00:36:10.391Z,91.77
2022-12-08T00:38:38.087Z,91.89
2022-12-08T00:41:09.031Z,91.85
2022-12-08T00:43:35.860Z,91.98
2022-12-08T00:46:02.616Z,91.77
2022-12-08T00:48:29.442Z,91.14
2022-12-08T00:50:56.435Z,90.77
2022-12-08T00:53:23.356Z,90.85
2022-12-08T00:55:51.365Z,90.55
2022-12-08T00:58:18.127Z,90.75
2022-12-08T01:00:44.880Z,90.26
2022-12-08T01:03:12.595Z,90.05
2022-12-08T01:05:39.911Z,89.73
2022-12-08T01:08:08.003Z,89.73
2022-12-08T01:10:38.497Z,89.20
2022-12-08T01:13:05.772Z,89.01
2022-12-08T01:15:32.447Z,89.26
2022-12-08T01:17:59.169Z,88.80
2022-12-08T01:20:26.078Z,88.97
2022-12-08T01:22:52.790Z,89.06
2022-12-08T01:25:19.481Z,89.18
2022-12-08T01:27:46.318Z,89.21
2022-12-08T01:30:13.572Z,89.24
2022-12-08T01:32:40.347Z,88.93
2022-12-08T01:35:07.356Z,88.56
2022-12-08T01:37:34.023Z,88.45
2022-12-08T01:40:00.741Z,88.14
2022-12-08T01:42:27.635Z,88.48
2022-12-08T01:45:03.049Z,88.34
2022-12-08T01:47:42.966Z,88.51
2022-12-08T01:50:13.206Z,89.54
2022-12-08T01:52:50.549Z,91.14
2022-12-08T01:55:23.119Z,92.18
2022-12-08T01:57:53.692Z,92.41
2022-12-08T02:00:21.841Z,93.20
2022-12-08T02:02:59.675Z,93.65
2022-12-08T02:05:33.872Z,93.93
2022-12-08T02:08:06.967Z,94.34
2022-12-08T02:10:37.257Z,94.73
2022-12-08T02:13:04.719Z,95.13
2022-12-08T02:16:10.420Z,95.33
2022-12-08T02:19:30.275Z,95.67
2022-12-08T02:22:15.082Z,95.70
2022-12-08T02:25:10.130Z,95.77
2022-12-08T02:27:58.721Z,95.71
2022-12-08T02:30:45.758Z,95.84
2022-12-08T02:33:50.125Z,95.84
2022-12-08T02:36:26.304Z,95.79
2022-12-08T02:39:25.483Z,94.55
2022-12-08T02:42:19.286Z,94.05
2022-12-08T02:44:57.621Z,94.26
2022-12-08T02:47:26.522Z,93.93
2022-12-08T02:49:55.849Z,93.38
2022-12-08T02:52:23.871Z,93.64
2022-12-08T02:54:55.205Z,93.09
2022-12-08T02:57:58.919Z,92.99
2022-12-08T03:00:29.936Z,92.87
2022-12-08T03:02:59.512Z,92.50
2022-12-08T03:05:32.186Z,92.04
2022-12-08T03:08:29.161Z,91.08
2022-12-08T03:11:05.012Z,90.32
2022-12-08T03:13:53.207Z,89.16
2022-12-08T03:16:25.688Z,89.07
2022-12-08T03:19:21.077Z,88.47
2022-12-08T03:21:52.651Z,88.31
2022-12-08T03:24:22.171Z,87.97
2022-12-08T03:26:57.846Z,87.92
2022-12-08T03:29:25.101Z,88.09
2022-12-08T03:31:57.744Z,87.67
2022-12-08T03:34:28.674Z,88.07
2022-12-08T03:36:55.689Z,88.25
2022-12-08T03:39:22.406Z,88.19
2022-12-08T03:41:49.211Z,88.23
2022-12-08T03:44:15.914Z,88.18
2022-12-08T03:46:42.610Z,87.67
2022-12-08T03:49:09.388Z,87.35
2022-12-08T03:51:36.384Z,86.95
2022-12-08T03:54:03.852Z,86.66
2022-12-08T03:56:34.084Z,85.74
2022-12-08T03:59:01.133Z,85.09
2022-12-08T04:01:28.393Z,85.44
2022-12-08T04:03:55.224Z,85.32
2022-12-08T04:06:22.637Z,85.33
2022-12-08T04:08:50.386Z,84.38
2022-12-08T04:11:17.987Z,83.86
2022-12-08T04:13:45.563Z,83.51
2022-12-08T04:16:25.357Z,83.19
2022-12-08T04:18:52.709Z,83.96
2022-12-08T04:21:19.749Z,83.30
2022-12-08T04:23:47.316Z,83.73
2022-12-08T04:26:14.608Z,83.41
2022-12-08T04:28:41.344Z,83.85
2022-12-08T04:31:08.182Z,83.85
2022-12-08T04:33:35.475Z,83.88
2022-12-08T04:36:03.564Z,83.71
2022-12-08T04:38:30.604Z,83.75
2022-12-08T04:40:57.501Z,83.81
2022-12-08T04:43:24.191Z,83.59
2022-12-08T04:45:50.986Z,83.64
2022-12-08T04:48:17.873Z,83.03
2022-12-08T04:50:45.896Z,83.11
2022-12-08T04:53:13.932Z,82.64
2022-12-08T04:55:44.928Z,83.64
2022-12-08T04:58:16.980Z,84.83
2022-12-08T05:00:44.524Z,86.06
2022-12-08T05:03:11.738Z,86.37
2022-12-08T05:05:38.585Z,86.44
2022-12-08T05:08:05.981Z,86.49
2022-12-08T05:10:33.070Z,86.55
2022-12-08T05:13:00.460Z,86.57
2022-12-08T05:15:27.366Z,86.43
2022-12-08T05:17:54.066Z,86.91
2022-12-08T05:20:20.945Z,87.06
2022-12-08T05:22:47.646Z,87.35
2022-12-08T05:25:15.021Z,87.52
2022-12-08T05:27:42.248Z,87.48
2022-12-08T05:30:09.097Z,87.53
2022-12-08T05:32:35.844Z,87.39
2022-12-08T05:35:02.735Z,87.55
2022-12-08T05:37:29.496Z,87.27
2022-12-08T05:39:56.190Z,86.44
2022-12-08T05:42:25.001Z,86.18
2022-12-08T05:44:52.225Z,85.76
2022-12-08T05:47:19.012Z,85.56
2022-12-08T05:49:45.728Z,85.76
2022-12-08T05:52:12.578Z,85.37
2022-12-08T05:54:39.280Z,85.17
2022-12-08T05:57:06.012Z,85.12
2022-12-08T05:59:32.958Z,84.74
2022-12-08T06:01:59.755Z,84.97
2022-12-08T06:04:26.532Z,84.51
2022-12-08T06:06:53.328Z,84.08
2022-12-08T06:09:20.155Z,84.20
2022-12-08T06:11:47.434Z,84.10
2022-12-08T06:14:14.413Z,83.81
2022-12-08T06:16:41.538Z,83.38
2022-12-08T06:19:08.553Z,83.65
2022-12-08T06:21:35.553Z,83.08
2022-12-08T06:24:02.251Z,83.48
2022-12-08T06:26:29.096Z,83.07
2022-12-08T06:28:55.867Z,83.35
2022-12-08T06:31:24.938Z,83.18
2022-12-08T06:33:53.418Z,82.86
2022-12-08T06:36:22.923Z,82.77
2022-12-08T06:38:49.925Z,82.80
2022-12-08T06:41:17.143Z,82.67
2022-12-08T06:43:44.358Z,82.76
2022-12-08T06:46:15.742Z,82.45
2022-12-08T06:48:43.063Z,83.22
2022-12-08T06:51:14.993Z,83.23
2022-12-08T06:53:43.040Z,83.49
2022-12-08T06:56:10.914Z,83.91
2022-12-08T06:58:38.157Z,83.99
2022-12-08T07:01:09.448Z,84.05
2022-12-08T07:03:37.472Z,84.38
2022-12-08T07:06:04.995Z,84.54
2022-12-08T07:08:33.366Z,84.51
2022-12-08T07:11:00.216Z,84.62
2022-12-08T07:13:26.927Z,84.71
2022-12-08T07:15:53.879Z,84.47
2022-12-08T07:18:20.800Z,84.46
2022-12-08T07:20:47.515Z,84.33
2022-12-08T07:23:15.016Z,83.98
2022-12-08T07:25:41.717Z,84.04
2022-12-08T07:28:12.503Z,83.95
2022-12-08T07:30:39.964Z,83.36
2022-12-08T07:33:06.765Z,83.68
2022-12-08T07:35:35.051Z,83.39
2022-12-08T07:38:02.616Z,83.40
2022-12-08T07:40:29.485Z,83.64
2022-12-08T07:42:56.223Z,83.72
2022-12-08T07:45:28.307Z,83.61
2022-12-08T07:47:58.079Z,83.64
2022-12-08T07:50:24.956Z,83.69
2022-12-08T07:52:51.645Z,83.61
2022-12-08T07:55:18.318Z,83.73
2022-12-08T07:57:45.073Z,83.45
2022-12-08T08:00:12.428Z,83.51
2022-12-08T08:02:39.917Z,83.71
2022-12-08T08:05:07.370Z,83.72
2022-12-08T08:07:34.587Z,83.85
2022-12-08T08:10:01.390Z,83.99
2022-12-08T08:12:32.589Z,84.08
2022-12-08T08:15:04.857Z,83.70
2022-12-08T08:17:32.497Z,84.03
2022-12-08T08:20:00.627Z,84.06
2022-12-08T08:22:27.775Z,83.84
2022-12-08T08:24:54.815Z,83.35
2022-12-08T08:27:21.544Z,83.94
2022-12-08T08:29:48.248Z,84.18
2022-12-08T08:32:15.092Z,84.14
2022-12-08T08:34:41.824Z,84.19
2022-12-08T08:37:08.554Z,83.85
2022-12-08T08:39:36.201Z,83.87
2022-12-08T08:42:03.103Z,84.02
2022-12-08T08:44:29.899Z,84.21
2022-12-08T08:46:56.739Z,84.09
2022-12-08T08:49:23.469Z,83.88
2022-12-08T08:51:50.406Z,84.32
2022-12-08T08:54:17.218Z,83.92
2022-12-08T08:56:44.002Z,84.21
2022-12-08T08:59:11.237Z,84.56
2022-12-08T09:01:38.275Z,83.35
2022-12-08T09:04:05.146Z,83.96
2022-12-08T09:06:32.387Z,83.57
2022-12-08T09:08:59.401Z,81.96
2022-12-08T09:11:26.300Z,80.69
2022-12-08T09:13:54.889Z,79.73
2022-12-08T09:16:22.820Z,79.39
2022-12-08T09:18:50.105Z,79.59
2022-12-08T09:21:23.227Z,79.53
2022-12-08T09:23:50.944Z,79.78
2022-12-08T09:26:17.646Z,80.41
2022-12-08T09:28:46.810Z,80.54
2022-12-08T09:31:14.529Z,80.79
2022-12-08T09:33:41.655Z,81.11
2022-12-08T09:36:09.081Z,80.52
2022-12-08T09:38:36.635Z,80.76
2022-12-08T09:41:14.492Z,80.52
2022-12-08T09:44:07.414Z,80.93
2022-12-08T09:46:35.835Z,80.93
2022-12-08T09:49:05.128Z,81.25
2022-12-08T09:51:38.330Z,81.03
2022-12-08T09:54:21.736Z,79.97
2022-12-08T09:56:52.270Z,81.10
2022-12-08T09:59:34.575Z,79.86
2022-12-08T10:02:03.733Z,81.43
2022-12-08T10:04:38.741Z,80.66
2022-12-08T10:07:40.761Z,79.70
2022-12-08T10:10:34.128Z,79.89
2022-12-08T10:13:07.375Z,79.83
2022-12-08T10:15:48.398Z,79.24
2022-12-08T10:18:18.564Z,79.70
2022-12-08T10:20:47.516Z,80.06
2022-12-08T10:23:35.144Z,80.76
2022-12-08T10:26:12.442Z,80.27
2022-12-08T10:28:44.661Z,80.48
2022-12-08T10:31:21.186Z,81.28
2022-12-08T10:34:01.116Z,83.12
2022-12-08T10:37:00.772Z,84.62
2022-12-08T10:39:46.988Z,86.13
2022-12-08T10:42:22.118Z,86.68
2022-12-08T10:44:58.130Z,87.23
2022-12-08T10:47:27.531Z,87.23
2022-12-08T10:50:19.590Z,87.15
2022-12-08T10:52:58.220Z,87.13
2022-12-08T10:55:25.168Z,87.17
2022-12-08T10:57:52.150Z,87.12
2022-12-08T11:00:26.590Z,87.04
2022-12-08T11:03:04.549Z,86.55
2022-12-08T11:05:35.436Z,84.93
2022-12-08T11:08:04.413Z,84.30
2022-12-08T11:10:35.720Z,84.44
2022-12-08T11:13:06.513Z,84.34
2022-12-08T11:15:39.655Z,84.36
2022-12-08T11:18:21.018Z,84.54
2022-12-08T11:20:47.858Z,84.99
2022-12-08T11:23:24.362Z,85.03
2022-12-08T11:25:53.050Z,85.20
2022-12-08T11:28:24.444Z,84.76
2022-12-08T11:31:03.937Z,84.85
2022-12-08T11:33:30.657Z,84.98
2022-12-08T11:36:05.691Z,84.00
2022-12-08T11:38:35.469Z,84.84
2022-12-08T11:41:15.872Z,84.15
2022-12-08T11:43:45.987Z,84.43
2022-12-08T11:46:22.282Z,84.19
2022-12-08T11:49:05.927Z,84.30
2022-12-08T11:51:37.901Z,84.50
2022-12-08T11:54:07.217Z,84.60
2022-12-08T11:56:37.419Z,85.47
2022-12-08T11:59:34.362Z,85.07
2022-12-08T12:02:03.221Z,85.96
2022-12-08T12:05:11.144Z,86.30
2022-12-08T12:07:59.191Z,86.78
2022-12-08T12:10:44.347Z,86.51
2022-12-08T12:13:29.044Z,86.66
2022-12-08T12:16:23.528Z,86.76
2022-12-08T12:18:55.628Z,87.06
2022-12-08T12:21:24.698Z,86.94
2022-12-08T12:24:03.854Z,87.36
2022-12-08T12:26:36.599Z,87.56
2022-12-08T12:29:16.220Z,87.77
2022-12-08T12:31:49.095Z,87.71
2022-12-08T12:34:21.194Z,88.18
2022-12-08T12:36:53.319Z,88.21
2022-12-08T12:39:29.881Z,88.85
2022-12-08T12:41:59.858Z,89.56
2022-12-08T12:44:29.649Z,90.24
2022-12-08T12:46:57.922Z,90.74
2022-12-08T12:49:40.014Z,90.83
2022-12-08T12:52:15.520Z,90.79
2022-12-08T12:55:05.977Z,90.98
2022-12-08T12:57:50.701Z,90.85
2022-12-08T13:00:19.892Z,91.19
2022-12-08T13:02:51.211Z,91.64
2022-12-08T13:05:30.657Z,92.24
2022-12-08T13:08:24.294Z,93.04
2022-12-08T13:11:07.007Z,93.61
2022-12-08T13:13:33.818Z,94.22
2022-12-08T13:16:18.433Z,94.33
2022-12-08T13:18:57.815Z,94.36
2022-12-08T13:21:33.476Z,94.75
2022-12-08T13:24:19.867Z,94.74
2022-12-08T13:26:49.304Z,95.19
2022-12-08T13:29:26.286Z,95.05
2022-12-08T13:32:00.340Z,95.27
2022-12-08T13:34:46.042Z,95.32
2022-12-08T13:37:13.674Z,95.70
2022-12-08T13:39:40.485Z,95.70
2022-12-08T13:42:13.555Z,95.61
2022-12-08T13:48:25.577Z,95.50
2022-12-08T13:57:11.447Z,95.24
2022-12-08T13:59:44.409Z,94.79
2022-12-08T14:02:33.309Z,93.93
2022-12-08T14:05:18.630Z,93.91
2022-12-08T14:07:49.271Z,93.82
2022-12-08T14:10:29.454Z,93.32
2022-12-08T14:12:59.402Z,93.34
2022-12-08T14:15:29.150Z,92.95
2022-12-08T14:17:58.858Z,92.22
2022-12-08T14:20:30.935Z,91.62
2022-12-08T14:23:01.847Z,91.11
2022-12-08T14:25:29.791Z,90.58
2022-12-08T14:28:02.350Z,90.52
2022-12-08T14:30:32.432Z,90.47
2022-12-08T14:33:02.256Z,90.27
2022-12-08T14:35:37.455Z,90.40
2022-12-08T14:38:16.955Z,90.41
2022-12-08T14:40:46.479Z,90.56
2022-12-08T14:43:20.932Z,90.28
2022-12-08T14:45:49.381Z,90.59
2022-12-08T14:48:42.854Z,90.18
2022-12-08T14:51:32.336Z,89.93
2022-12-08T14:54:18.952Z,89.46
2022-12-08T14:56:51.937Z,90.12
2022-12-08T14:59:27.207Z,89.89
2022-12-08T15:02:29.318Z,89.54
2022-12-08T15:05:10.636Z,89.65
2022-12-08T15:07:46.160Z,90.00
2022-12-08T15:10:15.873Z,89.57
2022-12-08T15:13:03.970Z,89.51
2022-12-08T15:15:32.817Z,89.31
2022-12-08T15:18:18.517Z,88.68
2022-12-08T15:21:01.288Z,87.99
2022-12-08T15:23:34.297Z,87.77
2022-12-08T15:26:01.054Z,87.79
2022-12-08T15:28:30.224Z,87.38
2022-12-08T15:30:58.517Z,87.96
2022-12-08T15:33:25.664Z,88.50
2022-12-08T15:35:53.170Z,88.79
2022-12-08T15:38:26.773Z,89.08
2022-12-08T15:40:54.528Z,89.23
2022-12-08T15:43:22.062Z,88.86
2022-12-08T15:45:58.421Z,88.70
2022-12-08T15:48:30.278Z,88.52
2022-12-08T15:50:57.515Z,88.29
2022-12-08T15:53:24.317Z,88.35
2022-12-08T15:56:26.565Z,88.44
2022-12-08T15:58:53.426Z,88.02
2022-12-08T16:01:21.355Z,88.35
2022-12-08T16:09:40.442Z,88.13
2022-12-08T16:13:13.318Z,88.09
2022-12-08T16:15:50.010Z,88.36
2022-12-08T16:18:14.022Z,88.58
2022-12-08T16:23:42.126Z,87.84
2022-12-08T16:29:03.142Z,87.43
2022-12-08T16:31:30.039Z,87.26
2022-12-08T16:33:56.865Z,87.24
2022-12-08T16:36:23.580Z,87.04
2022-12-08T16:38:50.474Z,87.29
2022-12-08T16:41:36.486Z,87.02
2022-12-08T16:44:05.442Z,87.01
2022-12-08T16:46:34.905Z,86.87
2022-12-08T16:49:01.787Z,86.45
2022-12-08T16:51:28.588Z,86.44
2022-12-08T16:53:57.126Z,86.55
2022-12-08T16:56:29.014Z,86.58
2022-12-08T16:58:59.264Z,86.37
2022-12-08T17:01:26.142Z,86.50
2022-12-08T17:04:22.492Z,86.80
2022-12-08T17:06:40.350Z,87.93
2022-12-08T17:09:07.304Z,88.60
2022-12-08T17:11:37.644Z,89.05
2022-12-08T17:14:06.070Z,89.28
2022-12-08T17:16:32.880Z,89.31
2022-12-08T17:18:59.792Z,89.91
2022-12-08T17:21:26.493Z,90.10
2022-12-08T17:23:53.177Z,90.45
2022-12-08T17:26:20.192Z,90.84
2022-12-08T17:29:02.264Z,90.98
2022-12-08T17:31:31.482Z,91.68
2022-12-08T17:34:00.468Z,91.86
2022-12-08T17:36:27.408Z,92.18
2022-12-08T17:38:55.091Z,92.59
2022-12-08T17:41:21.863Z,93.17
2022-12-08T17:43:48.576Z,93.66
2022-12-08T17:46:20.173Z,93.86
2022-12-08T17:48:47.352Z,94.24
2022-12-08T17:51:14.362Z,94.19
2022-12-08T17:53:41.578Z,94.26
2022-12-08T17:56:15.734Z,94.00
2022-12-08T17:58:42.641Z,94.17
2022-12-08T18:01:11.102Z,94.00
2022-12-08T18:03:38.943Z,93.92
2022-12-08T18:06:07.720Z,93.68
2022-12-08T18:08:35.258Z,93.53
2022-12-08T18:11:02.501Z,93.51
2022-12-08T18:13:29.439Z,93.38
2022-12-08T18:15:56.128Z,93.34
2022-12-08T18:18:22.851Z,93.03
2022-12-08T18:20:50.663Z,92.79
2022-12-08T18:23:18.200Z,92.69
2022-12-08T18:25:45.131Z,92.67
2022-12-08T18:28:11.996Z,92.55
2022-12-08T18:30:40.516Z,92.39
2022-12-08T18:33:07.523Z,92.49
2022-12-08T18:35:34.635Z,92.51
2022-12-08T18:38:01.370Z,92.47
2022-12-08T18:40:28.653Z,92.52
2022-12-08T18:42:55.505Z,92.29
2022-12-08T18:45:22.853Z,92.48
2022-12-08T18:47:51.356Z,92.53
2022-12-08T18:50:18.563Z,92.67
2022-12-08T18:52:46.630Z,92.70
2022-12-08T18:55:13.980Z,92.79
2022-12-08T18:57:43.282Z,92.63
2022-12-08T19:00:14.257Z,92.52
2022-12-08T19:02:41.965Z,92.73
2022-12-08T19:05:10.642Z,92.83
2022-12-08T19:07:38.161Z,92.83
2022-12-08T19:10:06.196Z,92.92
2022-12-08T19:12:33.293Z,93.18
2022-12-08T19:15:00.087Z,93.49
2022-12-08T19:17:26.891Z,93.63
2022-12-08T19:19:53.749Z,93.55
2022-12-08T19:22:20.622Z,93.46
2022-12-08T19:24:47.330Z,93.53
2022-12-08T19:27:14.248Z,93.71
2022-12-08T19:29:40.958Z,94.13
2022-12-08T19:32:07.668Z,94.29
2022-12-08T19:34:34.524Z,94.37
2022-12-08T19:37:01.224Z,95.09
2022-12-08T19:39:46.499Z,95.36
2022-12-08T19:42:37.478Z,96.21
2022-12-08T19:45:17.502Z,96.21
2022-12-08T19:47:44.449Z,96.45
2022-12-08T19:50:31.672Z,96.40
2022-12-08T19:52:58.932Z,96.60
2022-12-08T19:55:25.998Z,96.68
2022-12-08T19:57:53.878Z,96.64
2022-12-08T20:00:21.610Z,96.57
2022-12-08T20:02:48.677Z,96.60
2022-12-08T20:05:15.734Z,97.13
2022-12-08T20:07:42.892Z,96.90
2022-12-08T20:10:16.388Z,97.42
2022-12-08T20:12:43.237Z,97.94
2022-12-08T20:15:10.457Z,98.23
2022-12-08T20:17:39.291Z,98.21
2022-12-08T20:20:07.908Z,98.31
2022-12-08T20:22:35.181Z,98.24
2022-12-08T20:25:02.884Z,98.12
2022-12-08T20:27:29.755Z,98.34
2022-12-08T20:29:56.646Z,98.42
2022-12-08T20:32:23.356Z,98.17
2022-12-08T20:34:50.163Z,98.42
2022-12-08T20:37:16.988Z,98.27
2022-12-08T20:39:44.024Z,98.14
2022-12-08T20:42:13.963Z,98.02
2022-12-08T20:44:44.651Z,98.09
2022-12-08T20:47:12.924Z,98.16
2022-12-08T20:49:39.753Z,97.89
2022-12-08T20:52:07.375Z,97.87
2022-12-08T20:54:35.266Z,97.79
2022-12-08T20:57:02.392Z,98.07
2022-12-08T20:59:29.559Z,97.52
2022-12-08T21:01:56.456Z,97.99
2022-12-08T21:04:24.123Z,97.46
2022-12-08T21:06:51.221Z,97.32
2022-12-08T21:09:18.696Z,97.13
2022-12-08T21:11:46.020Z,97.14
2022-12-08T21:14:13.163Z,96.99
2022-12-08T21:16:40.154Z,96.67
2022-12-08T21:19:07.253Z,96.77
2022-12-08T21:21:34.277Z,96.65
2022-12-08T21:24:01.460Z,96.59
2022-12-08T21:26:28.866Z,96.46
2022-12-08T21:28:59.058Z,96.40
2022-12-08T21:31:27.260Z,96.28
2022-12-08T21:33:55.318Z,96.27
2022-12-08T21:36:22.535Z,96.24
2022-12-08T21:38:49.532Z,96.39
2022-12-08T21:41:42.573Z,96.35
2022-12-08T21:44:12.703Z,96.90
2022-12-08T21:46:41.057Z,97.24
2022-12-08T21:49:08.697Z,97.43
2022-12-08T21:51:37.953Z,97.52
2022-12-08T21:54:05.100Z,97.60
2022-12-08T21:56:32.319Z,97.68
2022-12-08T21:58:59.278Z,97.50
2022-12-08T22:01:26.155Z,97.71
2022-12-08T22:03:53.300Z,97.47
2022-12-08T22:06:20.373Z,97.59
2022-12-08T22:08:47.301Z,97.44
2022-12-08T22:11:14.300Z,97.34
2022-12-08T22:13:42.434Z,97.13
2022-12-08T22:16:11.574Z,97.04
2022-12-08T22:18:38.903Z,97.05
2022-12-08T22:21:11.650Z,96.94
2022-12-08T22:23:38.811Z,96.90
2022-12-08T22:26:06.675Z,96.92
2022-12-08T22:28:36.170Z,96.81
2022-12-08T22:31:14.820Z,96.55
2022-12-08T22:33:43.492Z,96.53
2022-12-08T22:36:24.705Z,96.40
2022-12-08T22:38:52.860Z,96.39
2022-12-08T22:41:20.635Z,96.32
2022-12-08T22:43:48.316Z,96.16
2022-12-08T22:46:24.429Z,95.86
2022-12-08T22:48:52.766Z,95.70
2022-12-08T22:51:19.995Z,95.50
2022-12-08T22:53:47.411Z,95.17
2022-12-08T22:56:15.746Z,95.06
2022-12-08T22:58:44.501Z,94.89
2022-12-08T23:01:26.244Z,94.49
2022-12-08T23:03:53.516Z,94.63
2022-12-08T23:06:20.520Z,94.29
2022-12-08T23:08:47.609Z,94.24
2022-12-08T23:11:14.916Z,94.23
2022-12-08T23:13:41.737Z,94.07
2022-12-08T23:16:10.378Z,93.82
2022-12-08T23:18:39.989Z,93.81
2022-12-08T23:21:09.268Z,93.58
2022-12-08T23:23:36.700Z,93.51
2022-12-08T23:26:03.649Z,93.27
2022-12-08T23:28:30.548Z,93.16
2022-12-08T23:30:57.382Z,93.01
2022-12-08T23:33:24.308Z,93.27
2022-12-08T23:35:58.094Z,92.71
2022-12-08T23:38:25.540Z,92.86
2022-12-08T23:40:52.761Z,92.74
2022-12-08T23:43:20.112Z,92.46
2022-12-08T23:45:48.609Z,92.51
2022-12-08T23:48:15.654Z,92.13
2022-12-08T23:50:42.481Z,92.52
2022-12-08T23:53:09.250Z,92.63
2022-12-08T23:55:35.960Z,92.49
2022-12-08T23:58:03.007Z,92.38
